createdAt,value
2018-03-28T00:00:10.239Z,99.50
2018-03-28T00:02:37.798Z,99.30
2018-03-28T00:05:06.113Z,99.30
2018-03-28T00:07:33.709Z,99.30
2018-03-28T00:10:01.262Z,99.30
2018-03-28T00:12:29.578Z,99.20
2018-03-28T00:14:57.162Z,99.40
2018-03-28T00:17:24.706Z,99.40
2018-03-28T00:19:52.254Z,99.70
2018-03-28T00:22:20.606Z,99.80
2018-03-28T00:24:48.161Z,99.80
2018-03-28T00:27:15.706Z,99.80
2018-03-28T00:29:43.485Z,99.90
2018-03-28T00:32:11.041Z,99.90
2018-03-28T00:34:38.588Z,99.90
2018-03-28T00:37:06.166Z,99.90
2018-03-28T00:39:33.769Z,99.90
2018-03-28T00:42:01.314Z,99.90
2018-03-28T00:44:28.946Z,99.90
2018-03-28T00:46:56.503Z,99.90
2018-03-28T00:49:24.821Z,99.90
2018-03-28T00:51:52.405Z,99.90
2018-03-28T00:54:19.954Z,99.90
2018-03-28T00:56:47.580Z,99.90
2018-03-28T00:59:15.410Z,99.90
2018-03-28T01:01:42.962Z,99.90
2018-03-28T01:04:11.277Z,99.90
2018-03-28T01:06:39.197Z,99.90
2018-03-28T01:09:06.896Z,99.70
2018-03-28T01:11:35.212Z,99.90
2018-03-28T01:14:02.797Z,99.90
2018-03-28T01:16:30.397Z,99.90
2018-03-28T01:18:57.958Z,99.90
2018-03-28T01:21:25.541Z,99.80
2018-03-28T01:23:53.095Z,99.60
2018-03-28T01:26:20.645Z,99.50
2018-03-28T01:28:48.234Z,99.60
2018-03-28T01:31:15.785Z,99.50
2018-03-28T01:33:43.333Z,99.50
2018-03-28T01:36:10.981Z,99.50
2018-03-28T01:38:38.574Z,99.60
2018-03-28T01:41:06.133Z,99.80
2018-03-28T01:43:33.833Z,99.80
2018-03-28T01:46:01.394Z,99.70
2018-03-28T01:48:29.705Z,99.90
2018-03-28T01:50:57.300Z,99.90
2018-03-28T01:53:24.850Z,99.90
2018-03-28T01:55:52.402Z,99.90
2018-03-28T01:58:20.081Z,99.90
2018-03-28T02:00:47.694Z,99.90
2018-03-28T02:03:15.256Z,99.90
2018-03-28T02:05:42.841Z,99.90
2018-03-28T02:08:10.514Z,99.90
2018-03-28T02:10:38.065Z,99.90
2018-03-28T02:13:05.920Z,99.90
2018-03-28T02:15:33.514Z,99.90
2018-03-28T02:18:01.169Z,99.90
2018-03-28T02:20:28.790Z,99.80
2018-03-28T02:22:56.398Z,99.60
2018-03-28T02:25:24.026Z,99.50
2018-03-28T02:27:52.560Z,99.40
2018-03-28T02:30:20.106Z,99.60
2018-03-28T02:32:48.418Z,99.40
2018-03-28T02:35:16.010Z,99.40
2018-03-28T02:37:43.566Z,99.20
2018-03-28T02:40:11.180Z,99.60
2018-03-28T02:42:38.817Z,99.10
2018-03-28T02:45:07.138Z,98.80
2018-03-28T02:47:34.689Z,98.80
2018-03-28T02:50:02.281Z,99.20
2018-03-28T02:52:29.892Z,99.00
2018-03-28T02:54:57.441Z,99.40
2018-03-28T02:57:25.045Z,99.50
2018-03-28T02:59:52.590Z,99.60
2018-03-28T03:02:20.438Z,99.40
2018-03-28T03:04:48.033Z,99.50
2018-03-28T03:07:15.640Z,99.60
2018-03-28T03:09:43.185Z,99.70
2018-03-28T03:12:10.863Z,99.80
2018-03-28T03:14:38.411Z,99.90
2018-03-28T03:17:06.729Z,99.60
2018-03-28T03:19:34.383Z,99.60
2018-03-28T03:22:01.975Z,99.50
2018-03-28T03:24:29.578Z,99.50
2018-03-28T03:26:57.217Z,99.50
2018-03-28T03:29:24.845Z,99.40
2018-03-28T03:31:52.393Z,99.50
2018-03-28T03:34:19.994Z,99.50
2018-03-28T03:36:47.550Z,99.50
2018-03-28T03:39:16.157Z,99.40
2018-03-28T03:41:43.737Z,99.30
2018-03-28T03:44:11.286Z,99.30
2018-03-28T03:46:38.862Z,99.20
2018-03-28T03:49:06.446Z,99.20
2018-03-28T03:51:34.045Z,99.20
2018-03-28T03:54:01.597Z,99.30
2018-03-28T03:56:30.215Z,99.20
2018-03-28T03:58:57.771Z,99.20
2018-03-28T04:01:25.475Z,99.20
2018-03-28T04:03:53.218Z,99.30
2018-03-28T04:06:20.767Z,99.10
2018-03-28T04:08:48.338Z,99.40
2018-03-28T04:11:15.978Z,99.20
2018-03-28T04:13:43.525Z,99.10
2018-03-28T04:16:11.072Z,99.30
2018-03-28T04:18:38.658Z,99.30
2018-03-28T04:21:06.210Z,99.30
2018-03-28T04:23:33.758Z,98.80
2018-03-28T04:26:01.395Z,98.80
2018-03-28T04:28:28.962Z,98.70
2018-03-28T04:30:56.710Z,98.70
2018-03-28T04:33:24.322Z,99.00
2018-03-28T04:35:52.146Z,98.80
2018-03-28T04:38:19.872Z,98.60
2018-03-28T04:40:47.497Z,98.90
2018-03-28T04:43:15.054Z,98.60
2018-03-28T04:45:42.631Z,98.80
2018-03-28T04:48:10.365Z,98.80
2018-03-28T04:50:38.005Z,98.70
2018-03-28T04:53:05.592Z,98.80
2018-03-28T04:55:33.215Z,98.80
2018-03-28T04:58:00.873Z,98.90
2018-03-28T05:00:28.539Z,98.80
2018-03-28T05:02:56.145Z,98.80
2018-03-28T05:05:23.923Z,98.70
2018-03-28T05:07:51.493Z,98.50
2018-03-28T05:10:19.119Z,98.60
2018-03-28T05:12:46.942Z,98.60
2018-03-28T05:15:15.310Z,98.50
2018-03-28T05:17:43.048Z,98.30
2018-03-28T05:20:10.610Z,98.80
2018-03-28T05:22:38.221Z,98.60
2018-03-28T05:25:05.826Z,98.50
2018-03-28T05:27:33.504Z,98.30
2018-03-28T05:30:01.113Z,98.20
2018-03-28T05:32:28.675Z,97.90
2018-03-28T05:34:56.245Z,98.00
2018-03-28T05:37:23.793Z,98.10
2018-03-28T05:39:51.796Z,98.20
2018-03-28T05:42:19.357Z,98.40
2018-03-28T05:44:46.938Z,98.30
2018-03-28T05:47:15.285Z,98.20
2018-03-28T05:49:43.086Z,98.20
2018-03-28T05:52:10.728Z,98.40
2018-03-28T05:54:39.270Z,98.40
2018-03-28T05:57:06.818Z,98.40
2018-03-28T05:59:34.506Z,98.60
2018-03-28T06:02:02.097Z,98.60
2018-03-28T06:04:29.643Z,98.50
2018-03-28T06:06:57.438Z,98.50
2018-03-28T06:09:25.046Z,98.50
2018-03-28T06:11:52.595Z,98.40
2018-03-28T06:14:20.139Z,98.20
2018-03-28T06:16:47.717Z,98.30
2018-03-28T06:19:15.356Z,98.40
2018-03-28T06:21:42.926Z,98.60
2018-03-28T06:24:10.517Z,98.90
2018-03-28T06:26:39.119Z,99.00
2018-03-28T06:29:06.673Z,98.90
2018-03-28T06:31:35.048Z,98.30
2018-03-28T06:34:02.593Z,98.30
2018-03-28T06:36:30.166Z,98.50
2018-03-28T06:38:57.754Z,98.70
2018-03-28T06:41:25.428Z,98.90
2018-03-28T06:43:53.153Z,98.70
2018-03-28T06:46:20.740Z,98.70
2018-03-28T06:48:48.337Z,98.60
2018-03-28T06:51:16.170Z,98.90
2018-03-28T06:53:43.753Z,99.50
2018-03-28T06:56:11.306Z,98.50
2018-03-28T06:58:38.873Z,98.60
2018-03-28T07:01:06.506Z,98.80
2018-03-28T07:03:34.058Z,98.90
2018-03-28T07:06:01.670Z,98.90
2018-03-28T07:08:29.418Z,98.80
2018-03-28T07:10:56.975Z,98.80
2018-03-28T07:13:24.518Z,98.60
2018-03-28T07:15:52.101Z,98.70
2018-03-28T07:18:19.645Z,98.30
2018-03-28T07:20:47.198Z,98.30
2018-03-28T07:23:15.324Z,98.70
2018-03-28T07:25:42.865Z,98.60
2018-03-28T07:28:11.396Z,98.30
2018-03-28T07:30:39.525Z,98.30
2018-03-28T07:33:07.087Z,97.70
2018-03-28T07:35:35.701Z,97.50
2018-03-28T07:38:03.385Z,97.60
2018-03-28T07:40:30.990Z,98.00
2018-03-28T07:42:58.750Z,97.30
2018-03-28T07:45:27.131Z,97.50
2018-03-28T07:47:54.690Z,97.50
2018-03-28T07:50:22.707Z,96.60
2018-03-28T07:52:50.303Z,97.30
2018-03-28T07:55:17.858Z,97.50
2018-03-28T07:57:46.177Z,97.80
2018-03-28T08:00:13.972Z,97.80
2018-03-28T08:02:41.642Z,97.60
2018-03-28T08:05:09.194Z,97.60
2018-03-28T08:07:36.770Z,97.80
2018-03-28T08:10:04.577Z,96.80
2018-03-28T08:12:32.134Z,96.70
2018-03-28T08:15:00.806Z,96.70
2018-03-28T08:17:28.435Z,96.70
2018-03-28T08:19:56.774Z,96.30
2018-03-28T08:22:24.353Z,96.40
2018-03-28T08:24:51.898Z,95.80
2018-03-28T08:27:19.447Z,94.70
2018-03-28T08:29:47.378Z,95.00
2018-03-28T08:32:16.267Z,94.50
2018-03-28T08:34:44.649Z,94.40
2018-03-28T08:37:12.304Z,94.30
2018-03-28T08:39:39.857Z,94.30
2018-03-28T08:42:08.449Z,92.20
2018-03-28T08:44:36.067Z,92.20
2018-03-28T08:47:03.612Z,91.50
2018-03-28T08:49:31.163Z,91.70
2018-03-28T08:51:58.777Z,91.30
2018-03-28T08:54:27.091Z,93.80
2018-03-28T08:56:55.121Z,93.80
2018-03-28T08:59:23.462Z,91.20
2018-03-28T09:01:51.070Z,91.20
2018-03-28T09:04:18.586Z,91.70
2018-03-28T09:06:46.314Z,90.80
2018-03-28T09:09:14.180Z,89.10
2018-03-28T09:11:41.823Z,90.70
2018-03-28T09:14:09.408Z,87.30
2018-03-28T09:16:36.966Z,84.20
2018-03-28T09:19:04.526Z,85.20
2018-03-28T09:21:32.484Z,87.70
2018-03-28T09:24:00.114Z,85.10
2018-03-28T09:26:27.657Z,83.90
2018-03-28T09:28:56.489Z,83.30
2018-03-28T09:31:24.026Z,83.20
2018-03-28T09:33:51.610Z,78.70
2018-03-28T09:36:19.200Z,77.90
2018-03-28T09:38:46.745Z,76.30
2018-03-28T09:41:14.366Z,77.50
2018-03-28T09:43:42.065Z,75.50
2018-03-28T09:46:09.726Z,76.20
2018-03-28T09:48:37.586Z,76.90
2018-03-28T09:51:05.189Z,74.20
2018-03-28T09:53:32.725Z,76.90
2018-03-28T09:56:00.434Z,71.30
2018-03-28T09:58:29.231Z,68.30
2018-03-28T10:01:02.624Z,68.20
2018-03-28T10:03:30.215Z,64.40
2018-03-28T10:05:58.743Z,68.70
2018-03-28T10:08:26.685Z,72.50
2018-03-28T10:10:54.050Z,64.60
2018-03-28T10:13:21.723Z,61.30
2018-03-28T10:15:49.442Z,63.90
2018-03-28T10:18:17.174Z,64.00
2018-03-28T10:20:44.942Z,65.50
2018-03-28T10:23:12.488Z,62.00
2018-03-28T10:25:40.943Z,61.60
2018-03-28T10:28:09.454Z,65.10
2018-03-28T10:30:37.428Z,66.00
2018-03-28T10:33:05.166Z,63.10
2018-03-28T10:35:32.715Z,64.80
2018-03-28T10:38:00.261Z,66.20
2018-03-28T10:40:28.837Z,54.70
2018-03-28T10:42:56.366Z,54.50
2018-03-28T10:45:23.918Z,59.20
2018-03-28T10:47:51.698Z,52.80
2018-03-28T10:50:19.330Z,55.00
2018-03-28T10:52:47.706Z,52.70
2018-03-28T10:55:15.499Z,52.70
2018-03-28T10:57:43.046Z,55.00
2018-03-28T11:00:10.594Z,52.90
2018-03-28T11:02:38.262Z,52.90
2018-03-28T11:05:05.842Z,50.60
2018-03-28T11:07:33.429Z,51.00
2018-03-28T11:10:01.811Z,52.00
2018-03-28T11:12:29.379Z,52.10
2018-03-28T11:14:57.404Z,49.40
2018-03-28T11:17:26.464Z,46.60
2018-03-28T11:19:54.179Z,52.50
2018-03-28T11:22:22.503Z,49.40
2018-03-28T11:24:50.293Z,49.40
2018-03-28T11:27:17.958Z,44.70
2018-03-28T11:29:45.546Z,48.80
2018-03-28T11:32:13.498Z,48.20
2018-03-28T11:34:41.043Z,48.10
2018-03-28T11:37:08.746Z,48.50
2018-03-28T11:39:36.357Z,45.10
2018-03-28T11:42:04.286Z,42.30
2018-03-28T11:44:32.138Z,46.10
2018-03-28T11:46:59.733Z,42.30
2018-03-28T11:49:27.279Z,60.70
2018-03-28T11:51:54.849Z,61.50
2018-03-28T11:54:22.674Z,58.90
2018-03-28T11:56:50.206Z,59.00
2018-03-28T11:59:17.766Z,48.90
2018-03-28T12:01:45.357Z,45.80
2018-03-28T12:04:13.014Z,41.20
2018-03-28T12:06:40.567Z,39.50
2018-03-28T12:09:08.949Z,41.80
2018-03-28T12:11:36.554Z,40.90
2018-03-28T12:14:04.284Z,38.30
2018-03-28T12:16:32.377Z,47.40
2018-03-28T12:19:00.073Z,34.90
2018-03-28T12:21:27.663Z,35.20
2018-03-28T12:23:55.286Z,40.10
2018-03-28T12:26:22.906Z,37.50
2018-03-28T12:28:50.466Z,34.80
2018-03-28T12:31:18.060Z,42.60
2018-03-28T12:33:45.770Z,40.10
2018-03-28T12:36:13.369Z,37.40
2018-03-28T12:38:41.007Z,37.90
2018-03-28T12:41:09.111Z,37.20
2018-03-28T12:43:36.883Z,40.80
2018-03-28T12:46:04.734Z,34.90
2018-03-28T12:48:32.380Z,37.50
2018-03-28T12:51:00.104Z,34.60
2018-03-28T12:53:28.745Z,36.90
2018-03-28T12:55:56.302Z,36.90
2018-03-28T12:58:24.022Z,39.70
2018-03-28T13:00:51.976Z,36.10
2018-03-28T13:03:19.531Z,38.20
2018-03-28T13:05:47.090Z,38.40
2018-03-28T13:08:14.914Z,36.70
2018-03-28T13:10:42.602Z,37.90
2018-03-28T13:13:11.063Z,34.80
2018-03-28T13:15:39.058Z,34.70
2018-03-28T13:18:06.787Z,35.10
2018-03-28T13:20:34.445Z,36.60
2018-03-28T13:23:02.330Z,34.90
2018-03-28T13:25:29.986Z,40.10
2018-03-28T13:27:57.542Z,38.80
2018-03-28T13:30:25.145Z,37.50
2018-03-28T13:32:52.699Z,38.40
2018-03-28T13:35:20.553Z,40.50
2018-03-28T13:37:48.412Z,44.50
2018-03-28T13:40:16.173Z,42.90
2018-03-28T13:42:44.590Z,41.00
2018-03-28T13:45:12.342Z,41.00
2018-03-28T13:47:39.903Z,43.40
2018-03-28T13:50:07.455Z,45.60
2018-03-28T13:52:35.046Z,41.40
2018-03-28T13:55:02.598Z,42.90
2018-03-28T13:57:30.162Z,41.00
2018-03-28T13:59:58.825Z,41.40
2018-03-28T14:02:26.346Z,41.60
2018-03-28T14:04:54.716Z,42.40
2018-03-28T14:07:22.502Z,42.50
2018-03-28T14:09:50.106Z,40.90
2018-03-28T14:12:17.790Z,42.20
2018-03-28T14:14:45.410Z,40.60
2018-03-28T14:17:13.684Z,43.90
2018-03-28T14:19:41.373Z,41.00
2018-03-28T14:22:09.172Z,44.40
2018-03-28T14:24:36.805Z,43.30
2018-03-28T14:27:04.359Z,42.30
2018-03-28T14:29:32.133Z,43.70
2018-03-28T14:31:59.693Z,42.60
2018-03-28T14:34:27.295Z,42.60
2018-03-28T14:36:55.625Z,54.80
2018-03-28T14:39:23.250Z,54.80
2018-03-28T14:41:50.838Z,51.90
2018-03-28T14:44:18.430Z,52.10
2018-03-28T14:46:46.116Z,50.80
2018-03-28T14:49:13.663Z,49.20
2018-03-28T14:51:41.598Z,48.00
2018-03-28T14:54:09.374Z,48.70
2018-03-28T14:56:37.785Z,47.30
2018-03-28T14:59:05.443Z,47.30
2018-03-28T15:01:33.011Z,49.20
2018-03-28T15:04:00.602Z,49.50
2018-03-28T15:06:28.647Z,50.40
2018-03-28T15:08:56.691Z,44.60
2018-03-28T15:11:24.417Z,46.40
2018-03-28T15:13:52.482Z,52.50
2018-03-28T15:16:20.042Z,59.70
2018-03-28T15:18:47.614Z,64.40
2018-03-28T15:21:16.545Z,67.20
2018-03-28T15:23:44.103Z,67.20
2018-03-28T15:26:11.804Z,68.70
2018-03-28T15:28:39.883Z,70.00
2018-03-28T15:31:07.677Z,70.80
2018-03-28T15:33:35.245Z,70.90
2018-03-28T15:36:03.128Z,71.70
2018-03-28T15:38:30.682Z,72.60
2018-03-28T15:40:58.247Z,73.10
2018-03-28T15:43:26.047Z,73.20
2018-03-28T15:45:53.917Z,72.50
2018-03-28T15:48:21.469Z,73.20
2018-03-28T15:50:49.119Z,73.70
2018-03-28T15:53:16.671Z,74.70
2018-03-28T15:55:44.218Z,75.90
2018-03-28T15:58:11.859Z,76.30
2018-03-28T16:00:39.688Z,77.00
2018-03-28T16:03:08.213Z,77.50
2018-03-28T16:05:36.052Z,77.50
2018-03-28T16:08:03.626Z,77.70
2018-03-28T16:10:31.295Z,77.50
2018-03-28T16:12:58.897Z,76.90
2018-03-28T16:15:26.598Z,78.20
2018-03-28T16:17:54.261Z,77.90
2018-03-28T16:20:21.882Z,78.50
2018-03-28T16:22:50.805Z,78.80
2018-03-28T16:25:18.365Z,79.10
2018-03-28T16:27:46.198Z,79.20
2018-03-28T16:30:13.758Z,80.30
2018-03-28T16:32:41.584Z,80.30
2018-03-28T16:35:09.615Z,80.00
2018-03-28T16:37:37.944Z,80.90
2018-03-28T16:40:05.514Z,80.90
2018-03-28T16:42:33.214Z,81.20
2018-03-28T16:45:00.817Z,82.10
2018-03-28T16:47:28.454Z,81.60
2018-03-28T16:49:56.099Z,81.20
2018-03-28T16:52:23.638Z,83.50
2018-03-28T16:54:52.108Z,83.00
2018-03-28T16:57:19.689Z,82.80
2018-03-28T16:59:47.246Z,83.40
2018-03-28T17:02:15.588Z,83.10
2018-03-28T17:04:43.375Z,83.10
2018-03-28T17:07:11.716Z,84.40
2018-03-28T17:09:39.273Z,84.40
2018-03-28T17:12:07.150Z,85.70
2018-03-28T17:14:34.713Z,84.40
2018-03-28T17:17:02.281Z,84.70
2018-03-28T17:19:29.953Z,85.40
2018-03-28T17:21:57.642Z,84.70
2018-03-28T17:24:25.495Z,85.80
2018-03-28T17:26:54.093Z,79.90
2018-03-28T17:29:21.654Z,80.00
2018-03-28T17:31:49.216Z,79.20
2018-03-28T17:34:16.832Z,79.20
2018-03-28T17:36:44.433Z,79.00
2018-03-28T17:39:12.089Z,79.00
2018-03-28T17:41:40.001Z,74.70
2018-03-28T17:44:07.572Z,69.10
2018-03-28T17:46:35.468Z,69.40
2018-03-28T17:49:03.067Z,70.20
2018-03-28T17:51:30.624Z,73.80
2018-03-28T17:53:58.401Z,75.00
2018-03-28T17:56:25.998Z,76.70
2018-03-28T17:58:53.559Z,80.00
2018-03-28T18:01:21.878Z,81.30
2018-03-28T18:03:49.485Z,81.30
2018-03-28T18:06:17.830Z,82.10
2018-03-28T18:08:45.456Z,82.10
2018-03-28T18:11:13.061Z,84.50
2018-03-28T18:13:40.627Z,81.90
2018-03-28T18:16:08.186Z,81.60
2018-03-28T18:18:35.799Z,82.30
2018-03-28T18:21:03.376Z,82.30
2018-03-28T18:23:30.962Z,82.20
2018-03-28T18:25:58.632Z,82.80
2018-03-28T18:28:27.160Z,81.20
2018-03-28T18:30:54.743Z,81.20
2018-03-28T18:33:22.361Z,81.40
2018-03-28T18:35:49.931Z,81.90
2018-03-28T18:38:18.220Z,81.80
2018-03-28T18:40:45.860Z,81.60
2018-03-28T18:43:13.646Z,80.80
2018-03-28T18:45:41.221Z,81.20
2018-03-28T18:48:08.986Z,82.30
2018-03-28T18:50:36.619Z,82.70
2018-03-28T18:53:04.245Z,83.70
2018-03-28T18:55:32.364Z,85.00
2018-03-28T18:57:59.968Z,86.10
2018-03-28T19:00:28.013Z,86.20
2018-03-28T19:02:56.363Z,87.20
2018-03-28T19:05:24.001Z,85.40
2018-03-28T19:07:51.561Z,86.20
2018-03-28T19:10:19.499Z,87.90
2018-03-28T19:12:47.080Z,87.50
2018-03-28T19:15:14.671Z,87.20
2018-03-28T19:17:42.385Z,87.10
2018-03-28T19:20:10.920Z,87.80
2018-03-28T19:22:39.072Z,87.80
2018-03-28T19:25:06.667Z,87.80
2018-03-28T19:27:34.648Z,87.00
2018-03-28T19:30:03.044Z,90.10
2018-03-28T19:32:30.707Z,90.00
2018-03-28T19:34:58.315Z,89.30
2018-03-28T19:37:25.957Z,89.60
2018-03-28T19:39:53.865Z,89.80
2018-03-28T19:42:21.442Z,89.80
2018-03-28T19:44:49.774Z,90.10
2018-03-28T19:47:17.425Z,90.10
2018-03-28T19:49:45.235Z,90.40
2018-03-28T19:52:12.806Z,90.30
2018-03-28T19:54:40.412Z,90.60
2018-03-28T19:57:08.000Z,91.20
2018-03-28T19:59:35.597Z,91.00
2018-03-28T20:02:03.705Z,91.00
2018-03-28T20:04:31.568Z,90.80
2018-03-28T20:06:59.145Z,91.20
2018-03-28T20:09:27.308Z,91.50
2018-03-28T20:11:54.875Z,90.60
2018-03-28T20:14:22.449Z,90.90
2018-03-28T20:16:50.322Z,90.90
2018-03-28T20:19:17.906Z,91.20
2018-03-28T20:21:45.636Z,91.30
2018-03-28T20:24:13.244Z,92.00
2018-03-28T20:26:40.933Z,91.80
2018-03-28T20:29:08.571Z,91.70
2018-03-28T20:31:37.327Z,92.20
2018-03-28T20:34:05.655Z,92.20
2018-03-28T20:36:33.474Z,92.20
2018-03-28T20:39:01.867Z,92.70
2018-03-28T20:41:29.522Z,92.70
2018-03-28T20:43:57.105Z,92.40
2018-03-28T20:46:24.695Z,92.10
2018-03-28T20:48:52.257Z,92.10
2018-03-28T20:51:19.823Z,92.40
2018-03-28T20:53:47.544Z,92.60
2018-03-28T20:56:15.106Z,92.90
2018-03-28T20:58:42.976Z,93.10
2018-03-28T21:01:10.709Z,93.00
2018-03-28T21:03:38.394Z,93.00
2018-03-28T21:06:23.768Z,93.70
2018-03-28T21:08:51.633Z,93.20
2018-03-28T21:11:19.501Z,93.10
2018-03-28T21:13:47.366Z,93.20
2018-03-28T21:16:15.363Z,93.60
2018-03-28T21:18:42.942Z,93.60
2018-03-28T21:21:10.654Z,93.80
2018-03-28T21:23:38.256Z,93.60
2018-03-28T21:26:05.965Z,93.40
2018-03-28T21:28:33.630Z,93.20
2018-03-28T21:31:01.884Z,93.20
2018-03-28T21:33:29.654Z,93.20
2018-03-28T21:35:57.359Z,93.60
2018-03-28T21:38:24.937Z,93.70
2018-03-28T21:40:53.376Z,93.80
2018-03-28T21:43:21.189Z,93.90
2018-03-28T21:45:49.597Z,93.90
2018-03-28T21:48:17.158Z,93.90
2018-03-28T21:50:44.783Z,93.90
2018-03-28T21:53:12.600Z,94.10
2018-03-28T21:55:40.155Z,93.90
2018-03-28T21:58:07.949Z,93.90
2018-03-28T22:00:35.510Z,93.90
2018-03-28T22:03:03.280Z,94.00
2018-03-28T22:05:30.871Z,94.30
2018-03-28T22:07:58.599Z,93.10
2018-03-28T22:10:26.189Z,92.10
2018-03-28T22:12:53.956Z,92.10
2018-03-28T22:15:22.363Z,91.30
2018-03-28T22:17:50.122Z,91.20
2018-03-28T22:20:18.129Z,91.70
2018-03-28T22:22:46.056Z,91.90
2018-03-28T22:25:13.853Z,92.50
2018-03-28T22:27:41.434Z,91.00
2018-03-28T22:30:08.997Z,90.50
2018-03-28T22:32:37.606Z,88.70
2018-03-28T22:35:05.311Z,88.70
2018-03-28T22:37:33.359Z,89.50
2018-03-28T22:40:00.905Z,90.00
2018-03-28T22:42:28.501Z,90.60
2018-03-28T22:44:56.157Z,90.90
2018-03-28T22:47:23.755Z,91.20
2018-03-28T22:49:51.694Z,91.10
2018-03-28T22:52:19.363Z,91.30
2018-03-28T22:54:46.913Z,91.00
2018-03-28T22:57:14.519Z,90.70
2018-03-28T22:59:42.074Z,90.70
2018-03-28T23:02:09.684Z,88.30
2018-03-28T23:04:37.486Z,86.90
2018-03-28T23:07:05.938Z,85.30
2018-03-28T23:09:44.262Z,85.30
2018-03-28T23:12:11.904Z,86.00
2018-03-28T23:14:39.562Z,85.70
2018-03-28T23:17:07.165Z,85.10
2018-03-28T23:19:34.728Z,83.70
2018-03-28T23:22:02.287Z,84.60
2018-03-28T23:24:29.870Z,85.00
2018-03-28T23:26:57.413Z,85.00
2018-03-28T23:29:25.299Z,84.70
2018-03-28T23:31:53.066Z,85.40
2018-03-28T23:34:21.043Z,86.20
2018-03-28T23:36:48.630Z,86.60
2018-03-28T23:39:16.381Z,86.80
2018-03-28T23:41:43.950Z,87.30
2018-03-28T23:44:11.511Z,87.70
2018-03-28T23:46:39.873Z,87.40
2018-03-28T23:49:07.427Z,87.40
2018-03-28T23:51:35.018Z,86.20
2018-03-28T23:54:02.960Z,86.50
2018-03-28T23:56:30.502Z,87.10
2018-03-28T23:58:58.117Z,87.00
